createdAt,value
2023-02-09T00:00:21.676Z,98.25
2023-02-09T00:03:25.042Z,98.17
2023-02-09T00:06:30.230Z,97.99
2023-02-09T00:09:33.196Z,97.67
2023-02-09T00:12:55.799Z,97.34
2023-02-09T00:16:02.206Z,97.27
2023-02-09T00:19:05.470Z,97.42
2023-02-09T00:22:08.355Z,97.44
2023-02-09T00:25:11.182Z,97.28
2023-02-09T00:28:16.811Z,97.28
2023-02-09T00:31:19.944Z,97.22
2023-02-09T00:34:22.868Z,97.38
2023-02-09T00:37:25.698Z,97.10
2023-02-09T00:40:29.001Z,96.76
2023-02-09T00:43:32.753Z,97.39
2023-02-09T00:46:35.802Z,99.22
2023-02-09T00:49:40.351Z,100.00
2023-02-09T00:52:43.278Z,99.96
2023-02-09T00:55:46.263Z,98.89
2023-02-09T00:58:49.190Z,98.34
2023-02-09T01:01:52.472Z,98.75
2023-02-09T01:04:55.484Z,98.16
2023-02-09T01:07:58.555Z,98.01
2023-02-09T01:11:10.526Z,97.54
2023-02-09T01:14:13.393Z,97.89
2023-02-09T01:17:19.392Z,97.92
2023-02-09T01:20:22.399Z,97.85
2023-02-09T01:23:25.840Z,97.76
2023-02-09T01:26:28.893Z,97.70
2023-02-09T01:29:31.846Z,97.88
2023-02-09T01:32:36.708Z,97.95
2023-02-09T01:35:42.399Z,97.72
2023-02-09T01:38:45.626Z,97.83
2023-02-09T01:41:48.639Z,98.28
2023-02-09T01:45:29.022Z,97.60
2023-02-09T01:48:32.003Z,97.58
2023-02-09T01:51:38.779Z,98.38
2023-02-09T01:55:03.123Z,99.09
2023-02-09T01:58:14.975Z,98.79
2023-02-09T02:01:21.357Z,99.78
2023-02-09T02:04:24.593Z,100.00
2023-02-09T02:07:52.928Z,100.00
2023-02-09T02:10:57.322Z,100.00
2023-02-09T02:14:01.468Z,100.00
2023-02-09T02:17:41.707Z,100.00
2023-02-09T02:20:45.100Z,100.00
2023-02-09T02:24:24.810Z,100.00
2023-02-09T02:27:46.030Z,100.00
2023-02-09T02:31:06.983Z,100.00
2023-02-09T02:34:25.666Z,99.86
2023-02-09T02:37:44.491Z,99.33
2023-02-09T02:41:04.113Z,98.54
2023-02-09T02:44:11.725Z,98.41
2023-02-09T02:47:16.413Z,98.54
2023-02-09T02:50:23.620Z,98.57
2023-02-09T02:53:30.169Z,98.86
2023-02-09T02:56:43.363Z,99.18
2023-02-09T02:59:51.743Z,100.00
2023-02-09T03:02:56.891Z,100.00
2023-02-09T03:06:05.244Z,100.00
2023-02-09T03:09:08.218Z,100.00
2023-02-09T03:12:37.809Z,99.54
2023-02-09T03:15:51.537Z,100.00
2023-02-09T03:19:06.798Z,100.00
2023-02-09T03:22:28.187Z,99.32
2023-02-09T03:25:34.743Z,99.29
2023-02-09T03:28:39.084Z,99.22
2023-02-09T03:31:42.434Z,99.42
2023-02-09T03:34:45.590Z,99.51
2023-02-09T03:37:48.598Z,99.50
2023-02-09T03:40:51.973Z,99.64
2023-02-09T03:44:13.292Z,98.88
2023-02-09T03:47:16.185Z,98.38
2023-02-09T03:50:20.567Z,98.66
2023-02-09T03:53:23.511Z,98.60
2023-02-09T03:56:26.322Z,98.41
2023-02-09T03:59:29.346Z,98.69
2023-02-09T04:02:33.217Z,98.62
2023-02-09T04:05:36.081Z,98.89
2023-02-09T04:08:39.030Z,98.65
2023-02-09T04:11:45.044Z,98.45
2023-02-09T04:14:47.890Z,98.31
2023-02-09T04:17:50.932Z,98.61
2023-02-09T04:20:55.116Z,99.10
2023-02-09T04:23:59.530Z,99.00
2023-02-09T04:27:02.389Z,99.06
2023-02-09T04:30:05.563Z,100.00
2023-02-09T04:33:11.339Z,100.00
2023-02-09T04:36:14.299Z,100.00
2023-02-09T04:39:17.218Z,100.00
2023-02-09T04:42:20.124Z,100.00
2023-02-09T04:45:22.969Z,100.00
2023-02-09T04:48:27.803Z,100.00
2023-02-09T04:51:30.651Z,100.00
2023-02-09T04:54:33.496Z,100.00
2023-02-09T04:57:55.173Z,100.00
2023-02-09T05:00:59.022Z,100.00
2023-02-09T05:04:02.697Z,100.00
2023-02-09T05:07:05.510Z,100.00
2023-02-09T05:10:08.561Z,100.00
2023-02-09T05:13:14.331Z,100.00
2023-02-09T05:16:20.512Z,100.00
2023-02-09T05:19:23.507Z,100.00
2023-02-09T05:22:27.582Z,100.00
2023-02-09T05:25:31.424Z,100.00
2023-02-09T05:28:34.814Z,100.00
2023-02-09T05:31:38.684Z,100.00
2023-02-09T05:34:45.139Z,100.00
2023-02-09T05:37:48.674Z,100.00
2023-02-09T05:40:53.610Z,100.00
2023-02-09T05:43:56.784Z,100.00
2023-02-09T05:46:59.909Z,100.00
2023-02-09T05:50:03.139Z,100.00
2023-02-09T05:53:06.150Z,100.00
2023-02-09T05:56:09.045Z,100.00
2023-02-09T05:59:13.160Z,100.00
2023-02-09T06:02:16.426Z,100.00
2023-02-09T06:05:21.218Z,99.92
2023-02-09T06:08:24.541Z,99.68
2023-02-09T06:11:27.735Z,99.62
2023-02-09T06:14:30.516Z,99.66
2023-02-09T06:17:33.537Z,99.36
2023-02-09T06:20:37.742Z,99.16
2023-02-09T06:23:40.768Z,99.53
2023-02-09T06:26:43.928Z,99.60
2023-02-09T06:29:46.930Z,100.00
2023-02-09T06:32:55.849Z,100.00
2023-02-09T06:35:58.837Z,100.00
2023-02-09T06:39:08.581Z,100.00
2023-02-09T06:42:11.976Z,100.00
2023-02-09T06:45:18.096Z,100.00
2023-02-09T06:48:21.462Z,100.00
2023-02-09T06:51:24.434Z,100.00
2023-02-09T06:54:29.467Z,99.94
2023-02-09T06:57:32.416Z,99.31
2023-02-09T07:00:38.682Z,99.81
2023-02-09T07:03:42.277Z,100.00
2023-02-09T07:06:45.282Z,100.00
2023-02-09T07:09:48.315Z,100.00
2023-02-09T07:12:51.218Z,100.00
2023-02-09T07:15:58.029Z,100.00
2023-02-09T07:19:01.324Z,100.00
2023-02-09T07:22:04.721Z,100.00
2023-02-09T07:25:07.763Z,100.00
2023-02-09T07:28:10.660Z,100.00
2023-02-09T07:31:17.555Z,100.00
2023-02-09T07:34:20.609Z,100.00
2023-02-09T07:37:23.535Z,100.00
2023-02-09T07:40:26.883Z,100.00
2023-02-09T07:43:30.161Z,100.00
2023-02-09T07:46:33.593Z,99.83
2023-02-09T07:49:36.558Z,100.00
2023-02-09T07:52:39.300Z,99.35
2023-02-09T07:55:45.417Z,98.01
2023-02-09T07:58:48.606Z,97.74
2023-02-09T08:01:52.356Z,96.83
2023-02-09T08:04:58.674Z,96.69
2023-02-09T08:08:01.954Z,96.63
2023-02-09T08:11:05.942Z,95.79
2023-02-09T08:14:15.497Z,94.94
2023-02-09T08:17:21.558Z,94.70
2023-02-09T08:20:30.712Z,94.90
2023-02-09T08:23:44.034Z,92.70
2023-02-09T08:26:46.926Z,92.64
2023-02-09T08:29:52.896Z,89.94
2023-02-09T08:33:15.896Z,88.08
2023-02-09T08:36:22.410Z,86.39
2023-02-09T08:39:25.416Z,86.11
2023-02-09T08:42:34.336Z,86.31
2023-02-09T08:45:38.073Z,83.41
2023-02-09T08:48:43.129Z,82.60
2023-02-09T08:51:46.089Z,82.80
2023-02-09T08:54:49.018Z,79.54
2023-02-09T08:57:52.673Z,80.22
2023-02-09T09:01:00.176Z,78.11
2023-02-09T09:04:04.675Z,77.08
2023-02-09T09:07:07.846Z,77.14
2023-02-09T09:10:11.276Z,78.07
2023-02-09T09:13:15.117Z,74.73
2023-02-09T09:16:20.696Z,74.88
2023-02-09T09:19:23.577Z,76.36
2023-02-09T09:22:26.549Z,75.62
2023-02-09T09:25:29.698Z,75.12
2023-02-09T09:28:33.679Z,74.32
2023-02-09T09:31:38.341Z,75.29
2023-02-09T09:34:41.507Z,73.98
2023-02-09T09:37:47.464Z,71.83
2023-02-09T09:40:50.320Z,71.74
2023-02-09T09:43:54.425Z,72.97
2023-02-09T09:47:01.426Z,70.76
2023-02-09T09:50:07.924Z,70.18
2023-02-09T09:53:33.569Z,68.94
2023-02-09T09:56:36.433Z,68.76
2023-02-09T09:59:42.098Z,69.28
2023-02-09T10:02:45.582Z,67.69
2023-02-09T10:05:52.765Z,66.69
2023-02-09T10:08:56.202Z,64.93
2023-02-09T10:12:25.567Z,63.24
2023-02-09T10:15:34.330Z,63.35
2023-02-09T10:18:38.519Z,62.25
2023-02-09T10:21:41.330Z,62.84
2023-02-09T10:24:47.207Z,63.86
2023-02-09T10:27:50.500Z,59.07
2023-02-09T10:30:55.742Z,60.41
2023-02-09T10:34:06.533Z,57.24
2023-02-09T10:37:29.031Z,58.18
2023-02-09T10:40:34.801Z,59.65
2023-02-09T10:43:37.599Z,58.46
2023-02-09T10:46:41.051Z,58.33
2023-02-09T10:50:02.071Z,55.43
2023-02-09T10:53:19.544Z,55.25
2023-02-09T10:56:26.170Z,55.51
2023-02-09T10:59:30.346Z,56.43
2023-02-09T11:02:38.111Z,54.02
2023-02-09T11:05:40.999Z,51.28
2023-02-09T11:09:08.156Z,50.40
2023-02-09T11:12:14.805Z,50.45
2023-02-09T11:15:27.756Z,49.67
2023-02-09T11:18:33.999Z,47.61
2023-02-09T11:21:44.330Z,47.96
2023-02-09T11:24:48.506Z,47.89
2023-02-09T11:28:25.904Z,47.65
2023-02-09T11:31:52.213Z,46.07
2023-02-09T11:35:07.989Z,46.74
2023-02-09T11:38:17.919Z,47.72
2023-02-09T11:42:04.084Z,47.22
2023-02-09T11:45:14.893Z,45.06
2023-02-09T11:48:24.533Z,44.01
2023-02-09T11:51:27.453Z,44.28
2023-02-09T11:54:33.549Z,43.70
2023-02-09T11:57:50.204Z,43.20
2023-02-09T12:01:15.770Z,43.27
2023-02-09T12:04:32.724Z,43.02
2023-02-09T12:07:37.715Z,42.44
2023-02-09T12:10:52.316Z,41.62
2023-02-09T12:14:07.066Z,42.29
2023-02-09T12:17:19.057Z,41.23
2023-02-09T12:20:54.097Z,40.99
2023-02-09T12:23:56.998Z,41.78
2023-02-09T12:26:59.970Z,41.29
2023-02-09T12:30:09.486Z,39.33
2023-02-09T12:33:26.059Z,40.44
2023-02-09T12:37:27.380Z,39.10
2023-02-09T12:40:38.124Z,40.06
2023-02-09T12:43:41.597Z,38.41
2023-02-09T12:46:48.264Z,38.72
2023-02-09T12:50:03.697Z,38.80
2023-02-09T12:53:25.170Z,39.04
2023-02-09T12:56:30.544Z,38.20
2023-02-09T12:59:33.396Z,38.12
2023-02-09T13:02:50.171Z,37.73
2023-02-09T13:05:57.591Z,38.51
2023-02-09T13:09:04.539Z,37.58
2023-02-09T13:12:16.990Z,37.97
2023-02-09T13:15:21.858Z,38.90
2023-02-09T13:18:33.026Z,37.37
2023-02-09T13:21:43.165Z,36.35
2023-02-09T13:24:57.031Z,38.06
2023-02-09T13:28:17.643Z,35.82
2023-02-09T13:31:41.297Z,37.58
2023-02-09T13:35:08.974Z,37.53
2023-02-09T13:38:17.046Z,36.91
2023-02-09T13:41:35.217Z,36.82
2023-02-09T13:44:45.413Z,35.97
2023-02-09T13:47:51.288Z,36.63
2023-02-09T13:50:59.670Z,36.91
2023-02-09T13:54:04.490Z,36.26
2023-02-09T13:57:20.034Z,36.33
2023-02-09T14:00:51.128Z,35.65
2023-02-09T14:03:59.333Z,35.15
2023-02-09T14:07:10.134Z,35.45
2023-02-09T14:10:17.114Z,34.51
2023-02-09T14:13:26.736Z,34.34
2023-02-09T14:16:29.729Z,35.96
2023-02-09T14:19:32.839Z,33.88
2023-02-09T14:22:42.941Z,34.91
2023-02-09T14:25:47.335Z,34.29
2023-02-09T14:29:07.149Z,34.45
2023-02-09T14:32:32.059Z,34.49
2023-02-09T14:35:39.910Z,34.58
2023-02-09T14:38:48.054Z,34.08
2023-02-09T14:42:09.376Z,34.42
2023-02-09T14:45:16.145Z,33.95
2023-02-09T14:48:19.419Z,32.80
2023-02-09T14:51:23.226Z,32.75
2023-02-09T14:54:28.604Z,33.95
2023-02-09T14:57:32.627Z,34.02
2023-02-09T15:00:36.508Z,34.71
2023-02-09T15:03:39.357Z,35.42
2023-02-09T15:06:45.274Z,35.48
2023-02-09T15:09:48.261Z,35.69
2023-02-09T15:12:51.481Z,36.11
2023-02-09T15:15:57.582Z,36.20
2023-02-09T15:19:01.238Z,36.64
2023-02-09T15:22:07.707Z,37.37
2023-02-09T15:25:14.122Z,39.55
2023-02-09T15:28:28.857Z,41.76
2023-02-09T15:31:32.122Z,43.13
2023-02-09T15:34:36.074Z,43.84
2023-02-09T15:37:40.238Z,45.34
2023-02-09T15:41:04.506Z,45.71
2023-02-09T15:44:37.125Z,46.93
2023-02-09T15:47:50.668Z,47.99
2023-02-09T15:50:53.530Z,48.61
2023-02-09T15:53:57.923Z,48.72
2023-02-09T15:57:02.101Z,50.69
2023-02-09T16:00:16.862Z,50.55
2023-02-09T16:03:21.090Z,50.70
2023-02-09T16:06:27.452Z,51.45
2023-02-09T16:09:31.146Z,52.65
2023-02-09T16:12:37.696Z,52.65
2023-02-09T16:15:41.079Z,53.66
2023-02-09T16:18:44.536Z,53.77
2023-02-09T16:21:51.029Z,54.77
2023-02-09T16:24:53.869Z,55.08
2023-02-09T16:28:00.136Z,55.98
2023-02-09T16:31:04.032Z,57.25
2023-02-09T16:34:07.397Z,57.87
2023-02-09T16:37:16.867Z,58.07
2023-02-09T16:40:31.176Z,59.61
2023-02-09T16:43:37.276Z,61.30
2023-02-09T16:46:41.263Z,61.02
2023-02-09T16:49:49.314Z,61.09
2023-02-09T16:52:54.577Z,61.79
2023-02-09T16:56:06.629Z,62.38
2023-02-09T16:59:15.674Z,63.54
2023-02-09T17:02:35.925Z,63.59
2023-02-09T17:05:39.120Z,64.38
2023-02-09T17:08:42.087Z,65.33
2023-02-09T17:11:45.095Z,67.45
2023-02-09T17:14:51.170Z,68.61
2023-02-09T17:18:02.126Z,69.84
2023-02-09T17:21:11.634Z,72.03
2023-02-09T17:24:17.125Z,71.17
2023-02-09T17:27:20.011Z,73.40
2023-02-09T17:30:24.113Z,75.55
2023-02-09T17:33:34.745Z,75.93
2023-02-09T17:36:38.053Z,75.96
2023-02-09T17:39:41.389Z,74.75
2023-02-09T17:42:45.414Z,76.19
2023-02-09T17:45:55.724Z,74.96
2023-02-09T17:48:59.418Z,74.03
2023-02-09T17:52:02.614Z,74.48
2023-02-09T17:55:05.940Z,74.10
2023-02-09T17:58:09.351Z,73.58
2023-02-09T18:01:26.524Z,73.64
2023-02-09T18:04:32.567Z,73.87
2023-02-09T18:07:35.711Z,74.77
2023-02-09T18:10:39.889Z,74.96
2023-02-09T18:13:44.076Z,75.03
2023-02-09T18:16:47.985Z,75.52
2023-02-09T18:19:51.131Z,75.83
2023-02-09T18:22:57.483Z,76.45
2023-02-09T18:26:04.239Z,76.53
2023-02-09T18:29:09.245Z,77.74
2023-02-09T18:32:16.048Z,77.52
2023-02-09T18:35:31.305Z,77.98
2023-02-09T18:38:37.925Z,78.95
2023-02-09T18:41:41.433Z,79.21
2023-02-09T18:44:44.686Z,78.99
2023-02-09T18:47:48.390Z,79.05
2023-02-09T18:50:53.238Z,79.69
2023-02-09T18:53:57.788Z,80.10
2023-02-09T18:57:00.992Z,80.53
2023-02-09T19:00:05.394Z,80.62
2023-02-09T19:03:13.517Z,81.26
2023-02-09T19:06:16.945Z,81.32
2023-02-09T19:09:22.933Z,82.13
2023-02-09T19:12:28.052Z,82.08
2023-02-09T19:15:33.449Z,82.01
2023-02-09T19:18:39.790Z,82.53
2023-02-09T19:21:43.656Z,83.46
2023-02-09T19:24:48.193Z,83.52
2023-02-09T19:27:54.820Z,83.29
2023-02-09T19:30:58.840Z,83.15
2023-02-09T19:34:01.968Z,83.67
2023-02-09T19:37:06.583Z,84.21
2023-02-09T19:40:24.397Z,84.52
2023-02-09T19:43:27.290Z,84.78
2023-02-09T19:46:30.874Z,84.00
2023-02-09T19:49:35.529Z,85.15
2023-02-09T19:52:45.704Z,85.58
2023-02-09T19:55:53.354Z,86.63
2023-02-09T19:58:58.916Z,86.22
2023-02-09T20:02:03.042Z,85.95
2023-02-09T20:05:06.451Z,86.35
2023-02-09T20:08:10.610Z,87.37
2023-02-09T20:11:20.366Z,87.95
2023-02-09T20:14:23.651Z,87.48
2023-02-09T20:17:28.152Z,87.95
2023-02-09T20:20:33.589Z,87.42
2023-02-09T20:23:38.057Z,87.37
2023-02-09T20:26:42.482Z,87.58
2023-02-09T20:29:45.477Z,87.28
2023-02-09T20:32:51.789Z,87.38
2023-02-09T20:35:54.961Z,86.86
2023-02-09T20:38:57.967Z,88.51
2023-02-09T20:42:20.252Z,88.78
2023-02-09T20:45:41.897Z,89.00
2023-02-09T20:48:45.440Z,89.80
2023-02-09T20:51:49.627Z,89.85
2023-02-09T20:54:52.415Z,90.23
2023-02-09T20:57:55.515Z,89.89
2023-02-09T21:01:00.342Z,90.48
2023-02-09T21:04:06.953Z,90.18
2023-02-09T21:07:11.236Z,89.78
2023-02-09T21:10:23.941Z,90.03
2023-02-09T21:13:26.975Z,90.32
2023-02-09T21:16:31.035Z,90.13
2023-02-09T21:19:34.474Z,91.02
2023-02-09T21:22:37.646Z,91.12
2023-02-09T21:25:41.503Z,91.86
2023-02-09T21:28:44.537Z,92.12
2023-02-09T21:31:48.274Z,91.54
2023-02-09T21:34:51.213Z,91.35
2023-02-09T21:37:54.051Z,92.10
2023-02-09T21:40:56.935Z,92.53
2023-02-09T21:44:00.330Z,91.98
2023-02-09T21:47:06.261Z,91.63
2023-02-09T21:50:11.854Z,91.72
2023-02-09T21:53:14.782Z,91.91
2023-02-09T21:56:17.652Z,92.21
2023-02-09T21:59:23.559Z,92.57
2023-02-09T22:02:27.722Z,92.65
2023-02-09T22:05:33.686Z,92.15
2023-02-09T22:08:38.945Z,91.64
2023-02-09T22:11:41.881Z,91.84
2023-02-09T22:14:45.538Z,92.41
2023-02-09T22:17:51.425Z,92.81
2023-02-09T22:20:54.300Z,92.29
2023-02-09T22:23:57.196Z,92.88
2023-02-09T22:26:59.982Z,93.76
2023-02-09T22:30:02.908Z,94.05
2023-02-09T22:33:07.643Z,94.82
2023-02-09T22:36:16.641Z,94.50
2023-02-09T22:39:20.070Z,93.84
2023-02-09T22:42:22.916Z,93.58
2023-02-09T22:45:25.731Z,93.60
2023-02-09T22:48:28.728Z,93.88
2023-02-09T22:51:33.210Z,93.29
2023-02-09T22:54:36.224Z,93.50
2023-02-09T22:57:39.558Z,93.59
2023-02-09T23:00:45.635Z,93.32
2023-02-09T23:03:48.933Z,93.58
2023-02-09T23:06:51.769Z,94.39
2023-02-09T23:09:55.634Z,95.17
2023-02-09T23:12:58.676Z,95.19
2023-02-09T23:16:13.014Z,94.82
2023-02-09T23:19:18.783Z,94.90
2023-02-09T23:22:21.539Z,94.70
2023-02-09T23:25:24.638Z,94.42
2023-02-09T23:28:28.159Z,95.01
2023-02-09T23:31:31.397Z,95.22
2023-02-09T23:34:34.457Z,95.50
2023-02-09T23:37:38.213Z,95.54
2023-02-09T23:40:44.428Z,94.58
2023-02-09T23:43:47.538Z,95.47
2023-02-09T23:46:53.258Z,95.17
2023-02-09T23:49:57.378Z,95.49
2023-02-09T23:53:00.427Z,95.30
2023-02-09T23:56:04.318Z,94.54
2023-02-09T23:59:10.465Z,94.29
